createdAt,value
2019-01-15T00:01:51.844Z,97808.64
2019-01-15T00:04:22.817Z,97812.30
2019-01-15T00:06:52.629Z,97815.93
2019-01-15T00:09:23.409Z,97813.72
2019-01-15T00:11:54.424Z,97818.77
2019-01-15T00:14:23.719Z,97818.77
2019-01-15T00:16:53.017Z,97819.63
2019-01-15T00:19:22.467Z,97826.97
2019-01-15T00:21:51.676Z,97823.36
2019-01-15T00:24:21.266Z,97829.40
2019-01-15T00:26:51.682Z,97832.67
2019-01-15T00:29:20.970Z,97825.44
2019-01-15T00:32:08.333Z,97825.70
2019-01-15T00:34:37.552Z,97822.04
2019-01-15T00:37:06.775Z,97833.03
2019-01-15T00:39:36.347Z,97833.83
2019-01-15T00:42:06.201Z,97833.17
2019-01-15T00:44:35.571Z,97836.27
2019-01-15T00:47:06.608Z,97839.20
2019-01-15T00:49:35.851Z,97838.45
2019-01-15T00:52:05.059Z,97833.00
2019-01-15T00:54:35.486Z,97835.18
2019-01-15T00:57:06.406Z,97826.05
2019-01-15T00:59:35.808Z,97834.32
2019-01-15T01:02:05.534Z,97834.32
2019-01-15T01:04:34.817Z,97820.98
2019-01-15T01:07:05.645Z,97822.33
2019-01-15T01:09:34.955Z,97825.25
2019-01-15T01:12:04.355Z,97833.92
2019-01-15T01:14:35.485Z,97837.00
2019-01-15T01:17:06.341Z,97843.73
2019-01-15T01:19:40.537Z,97843.56
2019-01-15T01:22:11.855Z,97853.61
2019-01-15T01:24:41.185Z,97844.55
2019-01-15T01:27:11.972Z,97847.27
2019-01-15T01:29:42.304Z,97842.41
2019-01-15T01:32:11.504Z,97843.07
2019-01-15T01:34:58.899Z,97843.11
2019-01-15T01:37:28.403Z,97843.11
2019-01-15T01:39:57.858Z,97836.56
2019-01-15T01:42:29.517Z,97836.11
2019-01-15T01:45:17.726Z,97835.94
2019-01-15T01:47:46.954Z,97836.80
2019-01-15T01:50:16.246Z,97836.80
2019-01-15T01:52:45.790Z,97847.92
2019-01-15T01:55:16.875Z,97847.92
2019-01-15T02:00:35.291Z,97852.71
2019-01-15T02:03:04.612Z,97852.81
2019-01-15T02:05:37.014Z,97855.48
2019-01-15T02:08:06.841Z,97857.23
2019-01-15T02:10:36.094Z,97856.87
2019-01-15T02:13:05.333Z,97851.85
2019-01-15T02:15:34.844Z,97862.36
2019-01-15T02:18:04.574Z,97858.83
2019-01-15T02:20:35.522Z,97854.72
2019-01-15T02:23:04.957Z,97854.72
2019-01-15T02:25:34.264Z,97853.27
2019-01-15T02:28:03.595Z,97859.15
2019-01-15T02:30:33.203Z,97859.02
2019-01-15T02:33:02.658Z,97858.16
2019-01-15T02:35:31.917Z,97872.72
2019-01-15T02:38:01.831Z,97872.72
2019-01-15T02:40:31.070Z,97873.91
2019-01-15T02:43:00.285Z,97867.91
2019-01-15T02:45:29.677Z,97854.06
2019-01-15T02:47:59.932Z,97842.67
2019-01-15T02:50:30.248Z,97823.82
2019-01-15T02:52:59.495Z,97830.53
2019-01-15T02:55:29.717Z,97830.53
2019-01-15T02:57:58.950Z,97816.79
2019-01-15T03:00:28.592Z,97821.09
2019-01-15T03:02:57.910Z,97819.00
2019-01-15T03:05:27.255Z,97811.18
2019-01-15T03:07:56.486Z,97814.20
2019-01-15T03:10:26.182Z,97825.51
2019-01-15T03:12:57.232Z,97828.83
2019-01-15T03:15:30.539Z,97837.33
2019-01-15T03:17:59.786Z,97829.69
2019-01-15T03:20:28.976Z,97821.84
2019-01-15T03:22:58.184Z,97817.75
2019-01-15T03:25:27.590Z,97808.39
2019-01-15T03:27:59.025Z,97808.39
2019-01-15T03:30:29.264Z,97813.26
2019-01-15T03:32:58.496Z,97809.95
2019-01-15T03:35:27.733Z,97796.11
2019-01-15T03:37:56.962Z,97796.11
2019-01-15T03:40:27.215Z,97795.30
2019-01-15T03:43:03.238Z,97795.30
2019-01-15T03:45:27.940Z,97803.45
2019-01-15T03:47:58.688Z,97808.53
2019-01-15T03:50:27.917Z,97808.53
2019-01-15T03:52:59.090Z,97812.27
2019-01-15T03:55:28.390Z,97812.27
2019-01-15T03:57:57.615Z,97805.64
2019-01-15T04:00:27.625Z,97803.73
2019-01-15T04:02:58.747Z,97791.33
2019-01-15T04:05:27.963Z,97791.33
2019-01-15T04:08:01.492Z,97789.88
2019-01-15T04:10:30.739Z,97788.00
2019-01-15T04:13:00.280Z,97782.06
2019-01-15T04:15:29.967Z,97784.33
2019-01-15T04:17:59.469Z,97781.06
2019-01-15T04:20:28.898Z,97772.14
2019-01-15T04:22:58.677Z,97769.13
2019-01-15T04:25:31.381Z,97774.00
2019-01-15T04:28:00.566Z,97774.00
2019-01-15T04:30:29.808Z,97780.11
2019-01-15T04:32:59.263Z,97788.56
2019-01-15T04:35:30.381Z,97780.89
2019-01-15T04:38:03.693Z,97788.80
2019-01-15T04:40:33.038Z,97778.06
2019-01-15T04:43:03.429Z,97776.71
2019-01-15T04:45:32.950Z,97778.38
2019-01-15T04:48:02.156Z,97772.35
2019-01-15T04:50:31.435Z,97771.84
2019-01-15T04:53:02.857Z,97771.84
2019-01-15T04:58:25.274Z,97762.28
2019-01-15T05:00:55.804Z,97767.75
2019-01-15T05:03:25.050Z,97761.14
2019-01-15T05:05:54.558Z,97771.25
2019-01-15T05:08:24.157Z,97771.25
2019-01-15T05:13:40.674Z,97770.47
2019-01-15T05:16:28.213Z,97770.47
2019-01-15T05:18:57.627Z,97768.14
2019-01-15T05:21:28.857Z,97760.11
2019-01-15T05:23:59.224Z,97746.42
2019-01-15T05:26:29.730Z,97760.61
2019-01-15T05:28:59.042Z,97761.47
2019-01-15T05:31:28.675Z,97751.11
2019-01-15T05:33:57.939Z,97747.61
2019-01-15T05:36:27.188Z,97758.36
2019-01-15T05:38:56.583Z,97758.36
2019-01-15T05:41:25.817Z,97746.21
2019-01-15T05:43:55.035Z,97746.21
2019-01-15T05:46:25.839Z,97754.14
2019-01-15T05:48:55.139Z,97761.83
2019-01-15T05:51:34.280Z,97759.50
2019-01-15T05:54:03.674Z,97749.55
2019-01-15T05:56:33.976Z,97749.55
2019-01-15T05:59:03.189Z,97747.31
2019-01-15T06:01:35.634Z,97749.70
2019-01-15T06:04:05.433Z,97746.50
2019-01-15T06:06:34.867Z,97737.66
2019-01-15T06:09:05.315Z,97726.36
2019-01-15T06:11:37.452Z,97716.86
2019-01-15T06:14:07.206Z,97725.83
2019-01-15T06:16:37.585Z,97727.14
2019-01-15T06:19:07.290Z,97732.28
2019-01-15T06:21:36.486Z,97727.38
2019-01-15T06:24:05.987Z,97727.38
2019-01-15T06:26:35.281Z,97725.37
2019-01-15T06:29:05.054Z,97724.02
2019-01-15T06:31:35.591Z,97706.20
2019-01-15T06:36:55.999Z,97718.58
2019-01-15T06:39:25.206Z,97718.58
2019-01-15T06:42:12.259Z,97712.51
2019-01-15T06:44:41.658Z,97712.51
2019-01-15T06:47:11.369Z,97705.56
2019-01-15T06:49:58.973Z,97705.56
2019-01-15T06:52:29.799Z,97715.27
2019-01-15T06:54:59.000Z,97715.27
2019-01-15T06:57:28.299Z,97704.48
2019-01-15T06:59:57.608Z,97704.48
2019-01-15T07:05:14.353Z,97704.63
2019-01-15T07:07:44.724Z,97706.95
2019-01-15T07:10:17.784Z,97703.20
2019-01-15T07:12:47.454Z,97703.36
2019-01-15T07:15:17.354Z,97713.89
2019-01-15T07:17:46.603Z,97717.41
2019-01-15T07:20:17.457Z,97719.98
2019-01-15T07:22:51.521Z,97719.98
2019-01-15T07:25:21.264Z,97710.99
2019-01-15T07:27:50.507Z,97719.20
2019-01-15T07:30:23.832Z,97719.20
2019-01-15T07:32:53.024Z,97717.15
2019-01-15T07:35:23.485Z,97725.77
2019-01-15T07:37:52.738Z,97725.31
2019-01-15T07:40:21.965Z,97725.31
2019-01-15T07:42:54.589Z,97728.67
2019-01-15T07:45:23.863Z,97725.79
2019-01-15T07:47:53.202Z,97725.79
2019-01-15T07:50:23.260Z,97728.44
2019-01-15T07:52:53.908Z,97725.17
2019-01-15T07:55:23.423Z,97724.11
2019-01-15T07:57:53.141Z,97725.41
2019-01-15T08:00:22.696Z,97730.55
2019-01-15T08:02:52.501Z,97706.14
2019-01-15T08:05:23.364Z,97721.78
2019-01-15T08:07:52.597Z,97736.99
2019-01-15T08:10:22.096Z,97710.52
2019-01-15T08:12:51.832Z,97714.94
2019-01-15T08:15:22.704Z,97714.94
2019-01-15T08:17:52.048Z,97729.33
2019-01-15T08:20:21.245Z,97719.78
2019-01-15T08:22:50.662Z,97719.41
2019-01-15T08:28:07.092Z,97725.59
2019-01-15T08:30:37.595Z,97731.26
2019-01-15T08:33:07.015Z,97726.72
2019-01-15T08:35:36.311Z,97729.06
2019-01-15T08:38:06.390Z,97721.55
2019-01-15T08:40:35.641Z,97715.20
2019-01-15T08:43:06.207Z,97717.41
2019-01-15T08:45:35.618Z,97716.52
2019-01-15T08:48:10.680Z,97716.29
2019-01-15T08:50:40.160Z,97726.10
2019-01-15T08:53:09.463Z,97726.10
2019-01-15T08:55:38.700Z,97724.85
2019-01-15T08:58:09.663Z,97724.85
2019-01-15T09:00:38.853Z,97716.67
2019-01-15T09:03:08.153Z,97719.45
2019-01-15T09:05:37.895Z,97724.97
2019-01-15T09:08:07.207Z,97722.19
2019-01-15T09:10:36.405Z,97728.05
2019-01-15T09:13:05.757Z,97728.05
2019-01-15T09:15:36.889Z,97718.31
2019-01-15T09:18:23.986Z,97718.31
2019-01-15T09:20:53.319Z,97708.41
2019-01-15T09:23:22.512Z,97708.41
2019-01-15T09:25:52.060Z,97728.46
2019-01-15T09:28:22.504Z,97721.43
2019-01-15T09:30:53.583Z,97719.36
2019-01-15T09:33:22.959Z,97719.36
2019-01-15T09:35:53.676Z,97721.64
2019-01-15T09:38:22.876Z,97724.16
2019-01-15T09:40:52.280Z,97723.88
2019-01-15T09:43:25.186Z,97719.19
2019-01-15T09:45:54.461Z,97719.19
2019-01-15T09:48:30.422Z,97719.16
2019-01-15T09:50:59.751Z,97719.16
2019-01-15T09:53:29.403Z,97721.66
2019-01-15T09:55:58.642Z,97730.59
2019-01-15T09:58:27.853Z,97730.59
2019-01-15T10:00:57.506Z,97725.66
2019-01-15T10:03:26.745Z,97715.48
2019-01-15T10:05:57.089Z,97726.41
2019-01-15T10:08:26.844Z,97722.17
2019-01-15T10:10:56.151Z,97722.17
2019-01-15T10:13:44.259Z,97711.84
2019-01-15T10:16:13.875Z,97707.23
2019-01-15T10:18:43.774Z,97707.23
2019-01-15T10:21:13.087Z,97699.73
2019-01-15T10:23:42.336Z,97701.14
2019-01-15T10:26:12.102Z,97691.41
2019-01-15T10:28:42.961Z,97688.67
2019-01-15T10:31:55.643Z,97688.67
2019-01-15T10:34:50.478Z,97681.73
2019-01-15T10:37:33.013Z,97683.22
2019-01-15T10:40:06.513Z,97683.22
2019-01-15T10:42:46.869Z,97681.41
2019-01-15T10:45:16.195Z,97681.41
2019-01-15T10:47:45.389Z,97677.31
2019-01-15T10:50:14.621Z,97680.00
2019-01-15T10:52:44.190Z,97678.55
2019-01-15T10:55:13.507Z,97676.02
2019-01-15T10:57:42.709Z,97680.64
2019-01-15T11:00:14.958Z,97680.47
2019-01-15T11:03:02.520Z,97677.55
2019-01-15T11:05:31.731Z,97677.55
2019-01-15T11:08:01.036Z,97666.55
2019-01-15T11:10:30.393Z,97671.95
2019-01-15T11:15:46.824Z,97658.12
2019-01-15T11:18:17.367Z,97658.12
2019-01-15T11:20:46.627Z,97657.27
2019-01-15T11:23:15.940Z,97647.41
2019-01-15T11:25:45.581Z,97657.62
2019-01-15T11:28:19.474Z,97657.62
2019-01-15T11:30:53.677Z,97652.23
2019-01-15T11:33:23.025Z,97652.23
2019-01-15T11:35:52.348Z,97650.23
2019-01-15T11:38:21.693Z,97650.23
2019-01-15T11:40:50.965Z,97646.92
2019-01-15T11:43:22.596Z,97653.09
2019-01-15T11:45:51.836Z,97635.92
2019-01-15T11:48:21.400Z,97635.92
2019-01-15T11:50:50.611Z,97632.70
2019-01-15T11:53:20.039Z,97630.13
2019-01-15T11:55:49.436Z,97625.82
2019-01-15T11:58:19.042Z,97627.24
2019-01-15T12:00:59.824Z,97627.24
2019-01-15T12:03:42.485Z,97631.28
2019-01-15T12:06:21.593Z,97618.91
2019-01-15T12:09:12.940Z,97620.82
2019-01-15T12:12:00.803Z,97619.06
2019-01-15T12:14:47.753Z,97619.92
2019-01-15T12:20:34.812Z,97615.22
2019-01-15T12:23:22.959Z,97614.63
2019-01-15T12:26:03.075Z,97613.38
2019-01-15T12:28:52.845Z,97614.77
2019-01-15T12:31:36.848Z,97614.77
2019-01-15T12:34:17.355Z,97603.59
2019-01-15T12:36:55.974Z,97603.59
2019-01-15T12:39:44.221Z,97598.60
2019-01-15T12:42:39.696Z,97588.66
2019-01-15T12:45:32.127Z,97588.66
2019-01-15T12:48:19.863Z,97589.25
2019-01-15T12:51:13.129Z,97593.28
2019-01-15T12:53:57.831Z,97590.45
2019-01-15T12:56:37.927Z,97590.45
2019-01-15T12:59:25.279Z,97583.84
2019-01-15T13:02:13.436Z,97583.96
2019-01-15T13:04:52.069Z,97571.23
2019-01-15T13:07:31.821Z,97571.23
2019-01-15T13:10:20.260Z,97562.39
2019-01-15T13:13:03.094Z,97571.30
2019-01-15T13:15:48.093Z,97569.69
2019-01-15T13:18:36.335Z,97569.69
2019-01-15T13:21:24.958Z,97576.70
2019-01-15T13:24:14.732Z,97573.25
2019-01-15T13:27:05.400Z,97573.25
2019-01-15T13:29:46.335Z,97577.08
2019-01-15T13:32:23.506Z,97572.98
2019-01-15T13:35:11.980Z,97563.88
2019-01-15T13:38:00.157Z,97563.88
2019-01-15T13:40:46.247Z,97572.91
2019-01-15T13:43:29.106Z,97569.58
2019-01-15T13:46:35.645Z,97570.92
2019-01-15T13:49:23.754Z,97574.11
2019-01-15T13:52:12.144Z,97574.11
2019-01-15T13:55:00.562Z,97569.59
2019-01-15T13:57:48.709Z,97570.34
2019-01-15T14:00:46.946Z,97566.17
2019-01-15T14:06:35.490Z,97566.80
2019-01-15T14:09:26.236Z,97564.88
2019-01-15T14:12:11.134Z,97564.88
2019-01-15T14:14:52.037Z,97559.48
2019-01-15T14:17:48.327Z,97559.48
2019-01-15T14:20:41.934Z,97551.94
2019-01-15T14:23:22.909Z,97546.65
2019-01-15T14:26:13.116Z,97546.65
2019-01-15T14:28:52.991Z,97541.78
2019-01-15T14:31:42.016Z,97541.95
2019-01-15T14:34:24.955Z,97541.95
2019-01-15T14:37:09.397Z,97538.33
2019-01-15T14:39:57.688Z,97538.33
2019-01-15T14:42:46.257Z,97534.70
2019-01-15T14:45:37.491Z,97528.84
2019-01-15T14:48:26.224Z,97537.45
2019-01-15T14:51:14.445Z,97537.55
2019-01-15T14:54:14.223Z,97538.80
2019-01-15T14:56:59.248Z,97544.84
2019-01-15T14:59:46.592Z,97544.84
2019-01-15T15:02:32.171Z,97545.44
2019-01-15T15:05:14.990Z,97540.58
2019-01-15T15:10:59.959Z,97539.27
2019-01-15T15:13:40.132Z,97542.96
2019-01-15T15:16:28.448Z,97545.61
2019-01-15T15:19:20.567Z,97545.61
2019-01-15T15:22:08.807Z,97538.23
2019-01-15T15:24:55.777Z,97547.30
2019-01-15T15:27:44.711Z,97543.99
2019-01-15T15:30:28.427Z,97547.39
2019-01-15T15:33:11.651Z,97536.33
2019-01-15T15:35:59.818Z,97542.97
2019-01-15T15:38:41.478Z,97533.29
2019-01-15T15:41:21.498Z,97533.67
2019-01-15T15:44:09.976Z,97534.40
2019-01-15T15:46:53.231Z,97527.31
2019-01-15T15:49:41.438Z,97537.64
2019-01-15T15:52:30.849Z,97529.03
2019-01-15T15:55:19.644Z,97540.58
2019-01-15T15:58:01.414Z,97532.14
2019-01-15T16:00:49.974Z,97533.47
2019-01-15T16:03:27.862Z,97533.47
2019-01-15T16:06:11.746Z,97524.47
2019-01-15T16:08:57.759Z,97529.88
2019-01-15T16:11:44.882Z,97526.93
2019-01-15T16:14:31.924Z,97520.77
2019-01-15T16:17:10.946Z,97520.77
2019-01-15T16:20:01.946Z,97514.52
2019-01-15T16:22:50.596Z,97526.75
2019-01-15T16:25:38.812Z,97518.41
2019-01-15T16:28:39.244Z,97522.66
2019-01-15T16:31:28.889Z,97518.95
2019-01-15T16:34:12.235Z,97518.95
2019-01-15T16:37:01.593Z,97515.82
2019-01-15T16:39:42.516Z,97515.82
2019-01-15T16:42:23.945Z,97517.45
2019-01-15T16:45:08.792Z,97521.06
2019-01-15T16:47:58.705Z,97521.06
2019-01-15T16:50:46.880Z,97518.09
2019-01-15T16:53:27.288Z,97512.27
2019-01-15T16:56:15.599Z,97512.27
2019-01-15T16:59:04.318Z,97520.37
2019-01-15T17:01:57.471Z,97524.91
2019-01-15T17:04:45.955Z,97521.34
2019-01-15T17:07:30.997Z,97521.34
2019-01-15T17:10:13.540Z,97517.70
2019-01-15T17:12:58.535Z,97516.20
2019-01-15T17:15:46.080Z,97516.20
2019-01-15T17:18:26.875Z,97509.97
2019-01-15T17:21:10.238Z,97516.63
2019-01-15T17:23:59.712Z,97508.55
2019-01-15T17:26:48.266Z,97508.55
2019-01-15T17:29:29.712Z,97514.95
2019-01-15T17:32:10.850Z,97515.59
2019-01-15T17:35:00.549Z,97520.49
2019-01-15T17:37:41.273Z,97523.50
2019-01-15T17:40:21.109Z,97526.41
2019-01-15T17:43:09.444Z,97526.41
2019-01-15T17:45:54.429Z,97511.54
2019-01-15T17:48:44.118Z,97511.54
2019-01-15T17:51:32.393Z,97511.81
2019-01-15T17:54:21.103Z,97502.52
2019-01-15T17:57:10.062Z,97502.52
2019-01-15T18:00:04.093Z,97509.16
2019-01-15T18:03:05.160Z,97517.45
2019-01-15T18:05:53.311Z,97520.76
2019-01-15T18:08:37.800Z,97516.84
2019-01-15T18:11:26.676Z,97521.19
2019-01-15T18:14:15.766Z,97513.51
2019-01-15T18:16:57.704Z,97515.33
2019-01-15T18:19:38.757Z,97517.72
2019-01-15T18:22:23.257Z,97512.48
2019-01-15T18:25:09.097Z,97514.64
2019-01-15T18:27:55.650Z,97515.94
2019-01-15T18:30:42.556Z,97508.10
2019-01-15T18:33:31.070Z,97519.78
2019-01-15T18:36:18.455Z,97519.78
2019-01-15T18:39:06.695Z,97506.87
2019-01-15T18:41:46.242Z,97514.09
2019-01-15T18:44:34.562Z,97514.09
2019-01-15T18:47:23.146Z,97503.13
2019-01-15T18:50:10.992Z,97503.13
2019-01-15T18:52:59.844Z,97507.86
2019-01-15T18:55:48.038Z,97505.16
2019-01-15T18:58:31.339Z,97503.13
2019-01-15T19:01:13.346Z,97503.13
2019-01-15T19:06:58.770Z,97498.17
2019-01-15T19:09:46.412Z,97498.17
2019-01-15T19:12:34.904Z,97494.47
2019-01-15T19:15:23.715Z,97503.45
2019-01-15T19:18:14.189Z,97503.45
2019-01-15T19:20:59.448Z,97500.16
2019-01-15T19:23:47.794Z,97499.09
2019-01-15T19:26:34.559Z,97491.41
2019-01-15T19:29:19.147Z,97505.67
2019-01-15T19:32:01.026Z,97503.99
2019-01-15T19:34:45.926Z,97503.99
2019-01-15T19:37:24.942Z,97501.75
2019-01-15T19:40:04.149Z,97498.45
2019-01-15T19:42:52.294Z,97498.45
2019-01-15T19:45:40.973Z,97505.06
2019-01-15T19:48:27.971Z,97501.08
2019-01-15T19:51:12.044Z,97494.13
2019-01-15T19:53:57.633Z,97494.98
2019-01-15T19:56:37.457Z,97496.69
2019-01-15T19:59:19.033Z,97496.69
2019-01-15T20:02:07.238Z,97496.59
2019-01-15T20:04:56.142Z,97502.19
2019-01-15T20:07:38.593Z,97502.19
2019-01-15T20:10:28.621Z,97497.31
2019-01-15T20:13:04.730Z,97497.31
2019-01-15T20:15:53.079Z,97497.41
2019-01-15T20:18:37.732Z,97497.41
2019-01-15T20:21:21.733Z,97496.62
2019-01-15T20:24:09.868Z,97496.62
2019-01-15T20:26:52.897Z,97491.66
2019-01-15T20:29:38.363Z,97493.70
2019-01-15T20:32:15.050Z,97498.17
2019-01-15T20:34:55.020Z,97498.17
2019-01-15T20:37:35.374Z,97491.51
2019-01-15T20:40:14.102Z,97491.34
2019-01-15T20:42:52.309Z,97482.05
2019-01-15T20:45:33.939Z,97492.60
2019-01-15T20:48:23.700Z,97491.44
2019-01-15T20:51:05.867Z,97491.44
2019-01-15T20:53:55.967Z,97492.64
2019-01-15T20:56:44.216Z,97488.66
2019-01-15T20:59:26.242Z,97486.70
2019-01-15T21:02:11.835Z,97492.39
2019-01-15T21:05:01.520Z,97492.39
2019-01-15T21:07:51.566Z,97490.96
2019-01-15T21:10:41.870Z,97490.39
2019-01-15T21:13:25.757Z,97494.59
2019-01-15T21:16:07.948Z,97497.88
2019-01-15T21:18:50.370Z,97486.80
2019-01-15T21:21:33.557Z,97494.51
2019-01-15T21:24:22.951Z,97494.51
2019-01-15T21:27:11.470Z,97489.01
2019-01-15T21:29:59.458Z,97486.36
2019-01-15T21:32:47.740Z,97483.34
2019-01-15T21:35:37.100Z,97483.34
2019-01-15T21:41:17.905Z,97484.78
2019-01-15T21:44:06.445Z,97480.50
2019-01-15T21:46:54.130Z,97477.63
2019-01-15T21:49:37.653Z,97478.37
2019-01-15T21:52:17.207Z,97478.37
2019-01-15T21:54:56.518Z,97479.11
2019-01-15T21:57:38.793Z,97471.69
2019-01-15T22:00:20.353Z,97466.50
2019-01-15T22:03:10.221Z,97466.50
2019-01-15T22:05:51.220Z,97472.19
2019-01-15T22:08:37.089Z,97467.16
2019-01-15T22:11:14.900Z,97460.97
2019-01-15T22:14:03.173Z,97460.97
2019-01-15T22:16:51.937Z,97463.69
2019-01-15T22:19:41.306Z,97464.29
2019-01-15T22:22:29.970Z,97457.12
2019-01-15T22:25:18.101Z,97461.95
2019-01-15T22:28:07.514Z,97457.97
2019-01-15T22:30:49.838Z,97453.89
2019-01-15T22:33:37.961Z,97453.89
2019-01-15T22:36:26.212Z,97442.83
2019-01-15T22:39:11.540Z,97438.47
2019-01-15T22:41:53.367Z,97433.98
2019-01-15T22:44:41.869Z,97442.42
2019-01-15T22:47:24.800Z,97434.49
2019-01-15T22:50:13.415Z,97434.49
2019-01-15T22:52:55.775Z,97429.88
2019-01-15T22:55:40.334Z,97420.20
2019-01-15T22:58:28.432Z,97426.94
2019-01-15T23:01:17.445Z,97426.94
2019-01-15T23:03:56.519Z,97427.76
2019-01-15T23:06:44.709Z,97420.49
2019-01-15T23:09:32.828Z,97419.16
2019-01-15T23:12:19.143Z,97415.91
2019-01-15T23:15:00.373Z,97410.41
2019-01-15T23:17:39.085Z,97413.95
2019-01-15T23:20:40.854Z,97419.25
2019-01-15T23:23:25.144Z,97408.70
2019-01-15T23:26:03.723Z,97408.30
2019-01-15T23:28:47.710Z,97408.30
2019-01-15T23:31:28.658Z,97398.23
2019-01-15T23:34:17.204Z,97398.23
2019-01-15T23:37:00.112Z,97404.00
2019-01-15T23:39:43.270Z,97404.00
2019-01-15T23:42:31.379Z,97406.34
2019-01-15T23:45:19.935Z,97396.20
2019-01-15T23:48:09.904Z,97396.20
2019-01-15T23:51:12.630Z,97395.50
2019-01-15T23:53:56.427Z,97390.98
2019-01-15T23:56:42.968Z,97390.98
2019-01-15T23:59:32.625Z,97389.28
